Time;durP1;ratioP1;P1;durP2;ratioP2;P2;SDS_P1;SDS_P2;PMS_P1;PMS_P2;Temp;Humidity;BMP_temperature;BMP_pressure;BME280_temperature;BME280_humidity;BME280_pressure;Samples;Min_cycle;Max_cycle;Signal;HPM_P1;HPM_P2
2022/11/05 00:11:05;;;;;;;93.80;37.03;;;9.90;99.90;;;;;;5021331;28;20233;-84
2022/11/05 00:16:57;;;;;;;86.95;35.85;;;9.90;99.90;;;;;;5020794;28;20177;-84
2022/11/05 00:19:08;;;;;;;87.38;38.03;;;9.90;99.90;;;;;;5013872;28;20293;-84
2022/11/05 00:27:06;;;;;;;87.05;39.45;;;9.60;99.90;;;;;;5021559;28;20208;-84
2022/11/05 00:29:32;;;;;;;83.47;37.17;;;9.50;99.90;;;;;;5035256;28;20181;-84
2022/11/05 00:31:57;;;;;;;85.57;39.30;;;9.40;99.90;;;;;;5019053;28;20420;-84
2022/11/05 00:34:23;;;;;;;87.90;36.90;;;9.30;99.90;;;;;;5035313;28;20256;-84
2022/11/05 00:36:49;;;;;;;83.40;41.77;;;9.30;99.90;;;;;;5020639;28;20169;-84
2022/11/05 00:39:14;;;;;;;86.80;42.70;;;9.30;99.90;;;;;;5018650;28;20654;-84
2022/11/05 00:41:40;;;;;;;84.40;47.47;;;9.20;99.90;;;;;;5020227;28;20162;-84
2022/11/05 00:49:28;;;;;;;84.80;42.08;;;9.20;99.90;;;;;;5020107;28;20161;-84
2022/11/05 00:49:35;;;;;;;88.07;44.83;;;9.10;99.90;;;;;;5019027;28;20190;-84
2022/11/05 00:54:45;;;;;;;87.22;35.40;;;8.90;99.90;;;;;;5019829;28;20156;-84
2022/11/05 00:57:10;;;;;;;82.73;31.33;;;8.90;99.90;;;;;;5018744;28;20264;-84
2022/11/05 00:59:36;;;;;;;86.53;33.13;;;8.90;99.90;;;;;;5020447;28;20221;-84
2022/11/05 01:02:02;;;;;;;90.27;31.40;;;9.00;99.90;;;;;;5018402;28;20178;-84
2022/11/05 01:04:27;;;;;;;84.90;27.13;;;9.00;99.90;;;;;;5019681;28;20173;-84
2022/11/05 01:06:54;;;;;;;85.13;32.17;;;9.10;99.90;;;;;;5020208;28;20594;-84
2022/11/05 01:09:23;;;;;;;84.90;32.22;;;9.10;99.90;;;;;;5018550;28;20190;-84
2022/11/05 01:11:50;;;;;;;83.55;32.10;;;9.00;99.90;;;;;;5018880;28;20652;-84
2022/11/05 01:14:16;;;;;;;86.88;39.20;;;8.90;99.90;;;;;;5018634;28;20745;-84
2022/11/05 01:16:41;;;;;;;86.53;35.83;;;8.80;99.90;;;;;;5017882;28;20182;-84
2022/11/05 01:19:09;;;;;;;81.83;33.27;;;8.80;99.90;;;;;;5017049;28;20424;-84
2022/11/05 01:21:35;;;;;;;89.88;39.88;;;8.70;99.90;;;;;;5017197;28;20401;-84
2022/11/05 01:24:02;;;;;;;80.77;35.70;;;8.70;99.90;;;;;;5017432;28;20165;-84
2022/11/05 01:26:28;;;;;;;81.60;33.15;;;8.60;99.90;;;;;;5016407;28;20413;-84
2022/11/05 01:28:56;;;;;;;85.47;35.40;;;8.40;99.90;;;;;;5017364;28;20198;-84
2022/11/05 01:31:22;;;;;;;94.75;37.97;;;8.30;99.90;;;;;;5016807;28;20432;-84
2022/11/05 01:33:48;;;;;;;83.97;35.72;;;8.20;99.90;;;;;;5016823;28;20172;-84
2022/11/05 01:36:14;;;;;;;84.32;39.85;;;8.10;99.90;;;;;;5016559;28;20173;-84
2022/11/05 01:38:40;;;;;;;86.30;38.80;;;8.10;99.90;;;;;;5032142;28;20627;-84
2022/11/05 01:41:09;;;;;;;82.97;37.37;;;8.10;99.90;;;;;;5016233;28;20166;-84
2022/11/05 01:43:53;;;;;;;85.35;40.00;;;8.10;99.90;;;;;;5015712;28;20163;-84
2022/11/05 01:46:42;;;;;;;84.43;37.30;;;8.10;99.90;;;;;;5016844;28;20161;-84
2022/11/05 01:49:21;;;;;;;89.82;37.80;;;8.10;99.90;;;;;;5016021;28;20276;-84
2022/11/05 01:51:50;;;;;;;88.57;40.55;;;8.10;99.90;;;;;;5017118;28;20168;-84
2022/11/05 01:54:28;;;;;;;86.80;38.17;;;8.20;99.90;;;;;;5017061;28;20170;-84
2022/11/05 01:57:01;;;;;;;85.82;37.90;;;8.30;99.90;;;;;;5018172;28;20241;-84
2022/11/05 01:59:55;;;;;;;89.15;34.50;;;8.30;99.90;;;;;;5017494;28;20196;-84
2022/11/05 02:02:24;;;;;;;89.85;33.90;;;8.20;99.90;;;;;;5017038;28;20158;-84
2022/11/05 02:04:58;;;;;;;82.53;33.47;;;8.20;99.90;;;;;;5017114;28;20178;-84
2022/11/05 02:07:27;;;;;;;84.90;37.15;;;8.10;99.90;;;;;;5016985;28;20182;-84
2022/11/05 02:10:02;;;;;;;90.85;33.80;;;8.00;99.90;;;;;;5017758;28;20178;-84
2022/11/05 02:12:29;;;;;;;87.75;37.38;;;8.00;99.90;;;;;;5016759;28;20158;-84
2022/11/05 02:14:58;;;;;;;87.53;29.92;;;7.80;99.90;;;;;;5016289;28;20158;-84
2022/11/05 02:17:29;;;;;;;86.03;28.70;;;7.80;99.90;;;;;;5015330;28;20193;-84
2022/11/05 02:20:17;;;;;;;88.75;28.17;;;7.70;99.90;;;;;;5016202;28;20193;-84
2022/11/05 02:22:54;;;;;;;82.35;27.90;;;7.60;99.90;;;;;;5017218;28;20158;-84
2022/11/05 02:25:56;;;;;;;81.93;25.08;;;7.70;99.90;;;;;;5016282;28;20154;-84
2022/11/05 02:29:29;;;;;;;82.60;26.98;;;7.60;99.90;;;;;;5016863;28;20227;-84
2022/11/05 02:32:26;;;;;;;81.22;24.88;;;7.60;99.90;;;;;;4974781;28;20696;-84
2022/11/05 02:35:17;;;;;;;79.97;25.13;;;7.60;99.90;;;;;;4974755;28;20176;-84
2022/11/05 02:37:51;;;;;;;86.88;29.55;;;7.60;99.90;;;;;;5015776;28;20229;-84
2022/11/05 02:40:42;;;;;;;86.75;25.48;;;7.60;99.90;;;;;;5016256;28;20185;-84
2022/11/05 02:43:14;;;;;;;89.13;30.80;;;7.70;99.90;;;;;;5008511;28;20205;-84
2022/11/05 02:45:50;;;;;;;85.70;30.20;;;7.70;99.90;;;;;;5016354;28;20561;-84
2022/11/05 02:48:38;;;;;;;92.57;31.10;;;7.80;99.90;;;;;;5016811;28;20178;-84
2022/11/05 02:51:29;;;;;;;88.30;32.22;;;7.80;99.90;;;;;;5016420;28;20170;-84
2022/11/05 02:54:07;;;;;;;89.45;30.95;;;7.80;99.90;;;;;;5020306;28;20150;-84
2022/11/05 02:56:37;;;;;;;89.35;30.73;;;7.90;99.90;;;;;;5021897;28;20158;-84
2022/11/05 02:59:03;;;;;;;84.28;32.17;;;8.00;99.90;;;;;;5021311;28;20189;-84
2022/11/05 03:01:29;;;;;;;90.67;33.27;;;8.00;99.90;;;;;;5021472;28;20696;-84
2022/11/05 03:03:59;;;;;;;87.67;33.77;;;8.00;99.90;;;;;;5020261;28;20166;-84
2022/11/05 03:06:32;;;;;;;91.45;34.53;;;8.10;99.90;;;;;;5019799;28;20165;-84
2022/11/05 03:09:16;;;;;;;87.93;33.58;;;8.20;99.90;;;;;;5020560;28;20205;-84
2022/11/05 03:11:57;;;;;;;83.80;32.25;;;8.20;99.90;;;;;;5020499;28;20169;-84
2022/11/05 03:14:56;;;;;;;91.57;35.13;;;8.30;99.90;;;;;;5022265;28;20189;-84
2022/11/05 03:17:28;;;;;;;90.55;37.08;;;8.30;99.90;;;;;;5021558;28;20164;-84
2022/11/05 03:20:11;;;;;;;89.68;35.55;;;8.40;99.90;;;;;;5022287;28;20284;-85
2022/11/05 03:22:46;;;;;;;87.13;35.10;;;8.30;99.90;;;;;;5021829;28;20565;-84
2022/11/05 03:25:16;;;;;;;88.13;37.30;;;8.40;99.90;;;;;;5021242;28;20572;-84
2022/11/05 03:27:46;;;;;;;91.85;39.53;;;8.40;99.90;;;;;;5021666;28;20185;-84
2022/11/05 03:30:15;;;;;;;91.65;35.53;;;8.40;99.90;;;;;;5020007;28;20193;-84
2022/11/05 03:32:49;;;;;;;89.78;38.67;;;8.30;99.90;;;;;;5036850;28;20169;-84
2022/11/05 03:35:37;;;;;;;84.72;33.38;;;8.30;99.90;;;;;;5021824;28;20221;-84
2022/11/05 03:38:10;;;;;;;87.15;35.13;;;8.30;99.90;;;;;;5021426;28;20155;-84
2022/11/05 03:40:38;;;;;;;90.68;36.30;;;8.30;99.90;;;;;;5022042;28;20185;-85
2022/11/05 03:43:07;;;;;;;95.78;34.33;;;8.30;99.90;;;;;;5021591;28;20173;-84
2022/11/05 03:45:42;;;;;;;90.72;34.33;;;8.30;99.90;;;;;;5019731;28;20177;-84
2022/11/05 03:48:17;;;;;;;88.05;34.05;;;8.20;99.90;;;;;;5020794;28;20181;-84
2022/11/05 03:50:52;;;;;;;84.32;32.08;;;8.20;99.90;;;;;;5020987;28;20243;-84
2022/11/05 03:53:24;;;;;;;87.72;26.60;;;8.20;99.90;;;;;;5020868;28;20154;-84
2022/11/05 03:56:02;;;;;;;84.05;27.80;;;8.30;99.90;;;;;;5021109;28;20302;-84
2022/11/05 03:58:29;;;;;;;81.25;25.83;;;8.30;99.90;;;;;;5020843;28;20200;-86
2022/11/05 04:00:57;;;;;;;88.13;25.40;;;8.30;99.90;;;;;;5020550;28;20247;-84
2022/11/05 04:03:35;;;;;;;84.28;25.73;;;8.20;99.90;;;;;;5019684;28;20180;-84
2022/11/05 04:14:14;;;;;;;84.25;27.95;;;7.70;99.90;;;;;;5020710;28;20161;-84
2022/11/05 04:24:52;;;;;;;80.18;21.60;;;7.60;99.90;;;;;;5018863;28;20177;-84
2022/11/05 04:27:18;;;;;;;80.27;22.93;;;7.50;99.90;;;;;;5019231;28;20649;-84
2022/11/05 04:32:28;;;;;;;79.50;24.05;;;7.40;99.90;;;;;;5018324;28;20444;-84
2022/11/05 04:34:53;;;;;;;78.93;22.60;;;7.50;99.90;;;;;;5017708;28;20161;-84
2022/11/05 04:37:22;;;;;;;83.10;25.57;;;7.50;99.90;;;;;;5018344;28;20319;-84
2022/11/05 04:39:50;;;;;;;83.20;23.85;;;7.50;99.90;;;;;;5018168;28;20677;-84
2022/11/05 04:42:19;;;;;;;80.93;25.15;;;7.40;99.90;;;;;;5017756;28;20220;-84
2022/11/05 04:44:44;;;;;;;81.55;25.27;;;7.40;99.90;;;;;;5017997;28;20180;-84
2022/11/05 04:47:10;;;;;;;85.73;24.87;;;7.40;99.90;;;;;;5017150;28;20627;-84
2022/11/05 04:49:36;;;;;;;81.70;24.73;;;7.30;99.90;;;;;;5018336;28;20653;-84
2022/11/05 04:52:01;;;;;;;82.63;23.50;;;7.30;99.90;;;;;;5018810;28;20581;-84
2022/11/05 04:54:27;;;;;;;88.40;25.70;;;7.30;99.90;;;;;;5018942;28;20205;-84
2022/11/05 04:56:53;;;;;;;79.90;23.87;;;7.30;99.90;;;;;;5018459;28;20158;-84
2022/11/05 04:59:18;;;;;;;81.87;26.40;;;7.10;99.90;;;;;;5018246;28;20205;-84
2022/11/05 05:01:44;;;;;;;80.83;24.93;;;7.10;99.90;;;;;;5018672;28;20162;-84
2022/11/05 05:04:10;;;;;;;81.47;24.60;;;7.00;99.90;;;;;;5017253;28;20162;-84
2022/11/05 05:06:37;;;;;;;81.27;23.80;;;7.00;99.90;;;;;;5019412;28;20243;-84
2022/11/05 05:09:03;;;;;;;78.35;24.38;;;6.90;99.90;;;;;;5019150;28;20717;-84
2022/11/05 05:11:29;;;;;;;78.00;25.05;;;6.80;99.90;;;;;;5019293;28;20172;-84
2022/11/05 05:13:54;;;;;;;89.87;24.40;;;6.80;99.90;;;;;;5018897;28;20194;-84
2022/11/05 05:16:22;;;;;;;83.57;25.00;;;6.70;99.90;;;;;;5033651;28;20166;-84
2022/11/05 05:18:49;;;;;;;82.40;23.50;;;6.70;99.90;;;;;;5017894;28;20197;-84
2022/11/05 05:24:00;;;;;;;78.90;22.95;;;6.80;99.90;;;;;;5018313;28;20216;-84
2022/11/05 05:26:26;;;;;;;82.20;26.47;;;6.70;99.90;;;;;;5019868;28;20166;-84
2022/11/05 05:28:53;;;;;;;80.65;23.98;;;6.70;99.90;;;;;;5017786;28;20456;-84
2022/11/05 05:31:19;;;;;;;80.03;21.40;;;6.70;99.90;;;;;;5100149;23;20230;-86
2022/11/05 05:33:46;;;;;;;88.70;23.65;;;6.60;99.90;;;;;;5019838;28;20194;-86
2022/11/05 05:36:12;;;;;;;80.43;24.77;;;6.60;99.90;;;;;;5004701;28;20228;-85
2022/11/05 05:38:38;;;;;;;85.33;26.07;;;6.60;99.90;;;;;;5004976;28;20170;-84
2022/11/05 05:41:03;;;;;;;80.67;26.50;;;6.50;99.90;;;;;;5004554;28;20163;-85
2022/11/05 05:43:31;;;;;;;81.10;27.10;;;6.50;99.90;;;;;;5005226;28;20245;-86
2022/11/05 05:46:01;;;;;;;81.00;24.88;;;6.50;99.90;;;;;;5003285;28;20173;-85
2022/11/05 05:48:29;;;;;;;80.80;24.25;;;6.50;99.90;;;;;;5003144;28;20191;-85
2022/11/05 05:51:00;;;;;;;81.05;25.10;;;6.40;99.90;;;;;;5004298;28;20193;-86
2022/11/05 05:53:26;;;;;;;80.13;23.67;;;6.40;99.90;;;;;;5005164;28;20158;-86
2022/11/05 05:55:53;;;;;;;82.13;23.43;;;6.30;99.90;;;;;;5006571;28;20162;-85
2022/11/05 05:58:19;;;;;;;78.25;25.02;;;6.30;99.90;;;;;;5004447;28;20174;-85
2022/11/05 06:00:44;;;;;;;83.10;21.97;;;6.20;99.90;;;;;;5002764;28;20258;-85
2022/11/05 06:03:10;;;;;;;79.77;23.53;;;6.20;99.90;;;;;;5002976;28;20414;-85
2022/11/05 06:05:36;;;;;;;78.97;22.00;;;6.30;99.90;;;;;;5002458;28;20174;-86
2022/11/05 06:08:01;;;;;;;81.90;23.53;;;6.30;99.90;;;;;;4999221;28;20281;-84
2022/11/05 06:10:27;;;;;;;85.13;25.10;;;6.20;99.90;;;;;;5000844;28;20182;-86
2022/11/05 06:12:53;;;;;;;83.07;24.60;;;6.20;99.90;;;;;;5003559;28;20639;-86
2022/11/05 06:15:19;;;;;;;82.07;24.03;;;6.20;99.90;;;;;;5004625;28;20185;-86
2022/11/05 06:17:44;;;;;;;85.03;26.00;;;6.20;99.90;;;;;;5005145;28;20565;-86
2022/11/05 06:20:11;;;;;;;82.80;23.93;;;6.20;99.90;;;;;;5004736;28;20265;-85
2022/11/05 06:22:37;;;;;;;83.22;24.65;;;6.20;99.90;;;;;;5005012;28;20167;-86
2022/11/05 06:25:05;;;;;;;81.88;25.45;;;6.20;99.90;;;;;;5005959;28;20542;-86
2022/11/05 06:27:30;;;;;;;84.57;27.85;;;6.10;99.90;;;;;;5004709;28;20570;-86
2022/11/05 06:29:56;;;;;;;83.67;26.30;;;6.10;99.90;;;;;;5008838;28;20187;-86
2022/11/05 06:32:22;;;;;;;81.97;24.33;;;6.10;99.90;;;;;;5024852;28;20254;-86
2022/11/05 06:34:47;;;;;;;82.83;25.30;;;6.10;99.90;;;;;;5010186;28;20167;-86
2022/11/05 06:37:13;;;;;;;82.33;26.50;;;6.00;99.90;;;;;;5009021;28;20174;-86
2022/11/05 06:39:39;;;;;;;85.73;24.40;;;6.00;99.90;;;;;;5007097;28;20194;-86
2022/11/05 06:42:04;;;;;;;80.47;22.60;;;6.00;99.90;;;;;;5008713;28;20234;-86
2022/11/05 06:44:30;;;;;;;79.90;23.57;;;5.90;99.90;;;;;;5009792;28;20169;-86
2022/11/05 06:46:56;;;;;;;79.80;23.57;;;6.00;99.90;;;;;;5009925;28;20234;-86
2022/11/05 06:49:24;;;;;;;83.40;25.90;;;6.00;99.90;;;;;;5008930;28;20198;-86
2022/11/05 06:51:51;;;;;;;82.20;23.65;;;5.90;99.90;;;;;;5008664;28;20178;-86
2022/11/05 06:54:16;;;;;;;84.32;23.55;;;5.90;99.90;;;;;;5007193;28;20539;-86
2022/11/05 06:56:42;;;;;;;79.40;22.27;;;5.80;99.90;;;;;;5010214;28;20182;-86
2022/11/05 06:59:08;;;;;;;81.30;23.17;;;5.90;99.90;;;;;;5009680;28;20197;-86
2022/11/05 07:01:34;;;;;;;86.93;24.00;;;5.90;99.90;;;;;;5010206;28;20166;-86
2022/11/05 07:04:00;;;;;;;84.60;25.33;;;5.90;99.90;;;;;;5008317;28;20175;-86
2022/11/05 07:06:26;;;;;;;82.93;23.80;;;5.90;99.90;;;;;;5009474;28;20650;-86
2022/11/05 07:08:52;;;;;;;88.35;27.13;;;5.90;99.90;;;;;;5009774;28;20468;-86
2022/11/05 07:11:18;;;;;;;82.85;25.27;;;6.00;99.90;;;;;;5009856;28;20167;-85
2022/11/05 07:13:44;;;;;;;84.47;26.17;;;6.00;99.90;;;;;;5009170;28;20173;-86
2022/11/05 07:16:09;;;;;;;87.67;24.33;;;6.00;99.90;;;;;;5009649;28;20175;-86
2022/11/05 07:18:35;;;;;;;87.60;27.70;;;6.10;99.90;;;;;;5007878;28;20185;-85
2022/11/05 07:21:01;;;;;;;86.40;27.23;;;6.10;99.90;;;;;;5008366;28;20928;-86
2022/11/05 07:23:27;;;;;;;84.10;27.10;;;6.10;99.90;;;;;;5008245;28;20923;-86
2022/11/05 07:25:52;;;;;;;80.17;23.90;;;6.10;99.90;;;;;;5006869;28;20237;-86
2022/11/05 07:28:18;;;;;;;80.73;25.00;;;6.10;99.90;;;;;;5007307;28;20445;-86
2022/11/05 07:30:44;;;;;;;83.90;24.90;;;6.20;99.90;;;;;;5009159;28;20753;-86
2022/11/05 07:33:10;;;;;;;82.03;25.23;;;6.20;99.90;;;;;;5009957;28;20150;-86
2022/11/05 07:35:35;;;;;;;82.40;26.53;;;6.20;99.90;;;;;;5008848;28;20400;-86
2022/11/05 07:38:01;;;;;;;83.17;24.50;;;6.30;99.90;;;;;;5009196;28;20178;-86
2022/11/05 07:40:28;;;;;;;81.87;25.20;;;6.30;99.90;;;;;;5007627;28;20246;-86
2022/11/05 07:42:56;;;;;;;81.75;26.27;;;6.30;99.90;;;;;;5008279;28;20925;-86
2022/11/05 07:45:23;;;;;;;80.95;23.13;;;6.30;99.90;;;;;;5008253;28;20178;-86
2022/11/05 07:47:51;;;;;;;81.70;24.13;;;6.40;99.90;;;;;;5009085;28;20194;-86
2022/11/05 07:50:20;;;;;;;84.60;26.70;;;6.40;99.90;;;;;;5009154;28;20182;-86
2022/11/05 07:52:47;;;;;;;81.13;25.70;;;6.50;99.90;;;;;;5009492;28;20662;-86
2022/11/05 07:55:13;;;;;;;83.65;26.33;;;6.60;99.90;;;;;;5009032;28;20162;-86
2022/11/05 07:57:46;;;;;;;88.70;29.25;;;6.70;99.90;;;;;;5008158;28;20185;-86
2022/11/05 08:00:18;;;;;;;84.10;30.70;;;6.90;99.90;;;;;;5007752;28;20202;-85
2022/11/05 08:03:02;;;;;;;79.43;25.88;;;7.00;99.90;;;;;;5005334;28;20163;-86
2022/11/05 08:05:28;;;;;;;84.95;31.05;;;7.10;99.90;;;;;;5007369;28;20181;-86
2022/11/05 08:07:55;;;;;;;85.07;27.02;;;7.20;99.90;;;;;;5007686;28;20194;-86
2022/11/05 08:10:23;;;;;;;83.60;28.13;;;7.40;99.90;;;;;;5007975;28;20229;-86
2022/11/05 08:12:48;;;;;;;83.72;32.67;;;7.40;99.90;;;;;;5008498;28;20217;-86
2022/11/05 08:15:14;;;;;;;82.43;31.27;;;7.50;99.90;;;;;;5007043;28;20171;-86
2022/11/05 08:17:40;;;;;;;82.70;30.30;;;7.60;99.90;;;;;;5006577;28;20441;-86
2022/11/05 08:20:07;;;;;;;91.20;27.23;;;7.70;99.90;;;;;;5007066;28;20539;-85
2022/11/05 08:22:32;;;;;;;80.20;28.52;;;7.70;99.90;;;;;;5005438;28;20177;-86
2022/11/05 08:24:58;;;;;;;83.07;31.83;;;7.80;99.90;;;;;;5005857;28;20166;-86
2022/11/05 08:27:24;;;;;;;81.30;29.30;;;7.80;99.90;;;;;;5003348;28;20540;-86
2022/11/05 08:29:52;;;;;;;80.77;30.00;;;7.90;99.90;;;;;;5005061;28;20591;-86
2022/11/05 08:32:18;;;;;;;85.13;29.58;;;7.90;99.90;;;;;;5003980;28;20189;-86
2022/11/05 08:34:44;;;;;;;90.10;35.60;;;7.90;99.90;;;;;;5004608;28;20166;-87
2022/11/05 08:37:10;;;;;;;83.87;36.07;;;8.00;99.90;;;;;;5004225;28;20402;-86
2022/11/05 08:39:36;;;;;;;86.63;35.15;;;8.10;99.90;;;;;;5004282;28;20450;-86
2022/11/05 08:42:02;;;;;;;83.50;34.47;;;8.10;99.90;;;;;;5004098;28;20177;-86
2022/11/05 08:44:28;;;;;;;86.55;36.60;;;8.20;99.90;;;;;;5004486;28;20155;-86
2022/11/05 08:46:54;;;;;;;89.00;37.50;;;8.30;99.90;;;;;;5003248;28;20541;-86
2022/11/05 08:49:20;;;;;;;84.90;38.70;;;8.40;99.90;;;;;;5005154;28;20214;-86
2022/11/05 08:51:49;;;;;;;83.05;36.10;;;8.50;99.90;;;;;;5004672;28;20963;-86
2022/11/05 08:54:15;;;;;;;86.40;37.08;;;8.50;99.90;;;;;;5019390;28;20177;-86
2022/11/05 08:56:40;;;;;;;83.87;36.40;;;8.50;99.90;;;;;;5004486;28;20171;-86
2022/11/05 08:59:06;;;;;;;85.00;33.47;;;8.60;99.90;;;;;;5003637;28;20550;-85
2022/11/05 09:01:33;;;;;;;84.53;37.13;;;8.70;99.90;;;;;;5004728;28;20583;-86
2022/11/05 09:03:58;;;;;;;80.63;33.97;;;8.70;99.90;;;;;;5002396;28;20410;-86
2022/11/05 09:06:25;;;;;;;81.63;29.07;;;8.80;99.90;;;;;;5001909;28;20230;-86
2022/11/05 09:08:50;;;;;;;82.88;26.85;;;8.80;99.90;;;;;;5002656;28;20453;-86
2022/11/05 09:11:17;;;;;;;77.77;24.50;;;8.80;99.90;;;;;;5001545;28;20197;-86
2022/11/05 09:13:42;;;;;;;83.80;29.10;;;8.90;99.90;;;;;;5000943;28;20190;-86
2022/11/05 09:16:20;;;;;;;80.77;31.83;;;9.00;99.90;;;;;;5001600;28;20158;-86
2022/11/05 09:18:50;;;;;;;76.05;20.25;;;9.10;99.90;;;;;;5002555;28;20476;-86
2022/11/05 09:21:17;;;;;;;76.32;20.60;;;9.20;99.90;;;;;;5001152;28;20166;-86
2022/11/05 09:23:44;;;;;;;75.28;19.42;;;9.20;99.90;;;;;;5003365;28;20649;-85
2022/11/05 09:26:11;;;;;;;86.78;21.05;;;9.30;99.90;;;;;;4999332;28;20242;-85
2022/11/05 09:28:37;;;;;;;82.13;31.15;;;9.30;99.90;;;;;;5001944;28;20197;-86
2022/11/05 09:31:07;;;;;;;76.80;28.83;;;9.50;99.90;;;;;;5001626;28;20263;-85
2022/11/05 09:33:34;;;;;;;80.95;28.20;;;9.50;99.90;;;;;;5002348;28;20167;-86
2022/11/05 09:36:00;;;;;;;84.47;35.13;;;9.70;99.90;;;;;;5002373;28;20167;-87
2022/11/05 09:38:26;;;;;;;78.83;35.63;;;9.80;99.90;;;;;;5002837;28;20183;-86
2022/11/05 09:40:59;;;;;;;80.25;32.22;;;9.90;99.90;;;;;;5001231;28;20641;-85
2022/11/05 09:43:39;;;;;;;78.85;25.08;;;10.00;99.90;;;;;;5017992;28;20189;-86
2022/11/05 09:46:28;;;;;;;79.28;24.00;;;10.10;99.90;;;;;;5003114;28;20209;-86
2022/11/05 09:49:01;;;;;;;80.32;17.75;;;10.30;99.90;;;;;;5000331;28;20210;-86
2022/11/05 09:51:27;;;;;;;76.28;14.23;;;10.40;99.90;;;;;;5003368;28;20151;-87
2022/11/05 09:53:53;;;;;;;78.45;12.65;;;10.60;99.90;;;;;;5019138;28;20631;-87
2022/11/05 09:56:25;;;;;;;73.57;12.77;;;10.70;99.90;;;;;;5003009;28;20178;-87
2022/11/05 09:59:03;;;;;;;74.45;10.15;;;10.80;99.90;;;;;;5005041;28;20432;-86
2022/11/05 10:01:33;;;;;;;74.75;10.80;;;10.90;99.90;;;;;;5004173;28;20205;-87
2022/11/05 10:04:05;;;;;;;71.38;9.55;;;11.00;99.90;;;;;;5005967;28;20162;-87
2022/11/05 10:06:30;;;;;;;70.80;9.85;;;11.20;99.90;;;;;;5005866;28;20171;-86
2022/11/05 10:09:16;;;;;;;72.60;10.60;;;11.20;99.90;;;;;;5007055;28;20229;-87
2022/11/05 10:12:05;;;;;;;71.40;8.63;;;11.20;99.90;;;;;;5009338;28;20194;-87
2022/11/05 10:14:40;;;;;;;72.57;8.70;;;11.30;99.90;;;;;;5007498;28;20257;-87
2022/11/05 10:17:17;;;;;;;70.05;7.95;;;11.50;99.90;;;;;;5008644;28;20630;-88
2022/11/05 10:20:09;;;;;;;73.88;8.48;;;11.60;99.90;;;;;;5009349;28;20188;-88
2022/11/05 10:22:36;;;;;;;71.80;8.23;;;11.70;99.90;;;;;;4987866;28;20178;-88
2022/11/05 10:25:08;;;;;;;69.95;9.90;;;11.80;99.90;;;;;;5003896;28;20238;-87
2022/11/05 10:27:43;;;;;;;70.25;8.77;;;11.90;99.90;;;;;;5002896;28;20569;-88
2022/11/05 10:30:13;;;;;;;73.80;7.88;;;12.00;99.90;;;;;;5004193;28;20186;-88
2022/11/05 10:32:43;;;;;;;75.00;8.65;;;12.00;99.90;;;;;;4999872;28;20178;-87
2022/11/05 10:35:21;;;;;;;69.72;6.47;;;12.20;99.90;;;;;;4998956;28;20649;-87
2022/11/05 10:37:53;;;;;;;70.05;6.70;;;12.30;99.90;;;;;;5014901;28;20610;-88
2022/11/05 10:40:40;;;;;;;69.53;6.20;;;12.30;99.90;;;;;;4998340;28;20198;-87
2022/11/05 10:43:14;;;;;;;72.53;6.97;;;12.30;99.90;;;;;;5000014;28;20197;-87
2022/11/05 10:45:49;;;;;;;74.10;7.80;;;12.30;99.90;;;;;;5002393;28;20495;-87
2022/11/05 10:48:39;;;;;;;70.30;7.20;;;12.30;99.90;;;;;;5001278;28;20194;-87
2022/11/05 10:51:07;;;;;;;68.28;6.38;;;12.30;99.90;;;;;;5000908;28;20158;-87
2022/11/05 10:53:38;;;;;;;69.30;5.97;;;12.40;98.80;;;;;;5000351;28;20594;-87
2022/11/05 10:56:39;;;;;;;69.97;5.72;;;12.40;99.90;;;;;;5000459;28;20168;-87
2022/11/05 10:59:22;;;;;;;68.25;5.20;;;12.30;97.90;;;;;;5001133;28;20250;-87
2022/11/05 11:02:03;;;;;;;71.72;6.13;;;12.50;99.90;;;;;;4998888;28;20163;-86
2022/11/05 11:04:30;;;;;;;69.80;6.03;;;12.60;92.70;;;;;;4999398;28;20155;-87
2022/11/05 11:06:57;;;;;;;69.15;5.60;;;12.70;90.60;;;;;;4997576;28;20189;-87
2022/11/05 11:09:32;;;;;;;67.38;5.40;;;12.90;82.80;;;;;;4998574;28;20289;-87
2022/11/05 11:12:07;;;;;;;66.80;4.75;;;12.80;90.60;;;;;;4998280;28;20147;-87
2022/11/05 11:14:34;;;;;;;71.85;4.95;;;12.90;82.30;;;;;;4997665;28;20166;-87
2022/11/05 11:17:22;;;;;;;67.57;5.25;;;12.90;74.00;;;;;;4998237;28;20641;-87
2022/11/05 11:19:47;;;;;;;71.10;5.43;;;12.70;80.20;;;;;;4996082;28;20194;-87
2022/11/05 11:22:20;;;;;;;66.00;4.97;;;12.80;87.90;;;;;;4997614;28;20189;-87
2022/11/05 11:24:49;;;;;;;66.60;4.20;;;12.90;81.60;;;;;;4997235;28;20167;-87
2022/11/05 11:27:21;;;;;;;67.13;4.45;;;12.80;80.50;;;;;;4996166;28;20171;-87
2022/11/05 11:32:50;;;;;;;65.72;4.32;;;13.00;57.00;;;;;;5106596;23;20224;-82
2022/11/05 11:35:24;;;;;;;65.80;4.63;;;13.00;54.50;;;;;;5038879;28;20166;-82
2022/11/05 11:37:55;;;;;;;65.65;4.70;;;13.10;63.50;;;;;;5055341;28;20188;-82
2022/11/05 11:40:27;;;;;;;67.40;5.05;;;13.20;55.40;;;;;;5039666;28;20215;-82
2022/11/05 11:42:56;;;;;;;66.53;5.22;;;13.30;50.80;;;;;;5038165;28;20204;-82
2022/11/05 11:45:43;;;;;;;68.15;4.75;;;13.50;53.00;;;;;;5040063;28;20637;-82
2022/11/05 11:48:44;;;;;;;66.07;4.60;;;13.50;46.70;;;;;;5038886;28;20280;-82
2022/11/05 11:51:43;;;;;;;66.78;4.00;;;13.40;45.10;;;;;;5027738;28;20412;-82
2022/11/05 11:54:23;;;;;;;67.90;4.10;;;13.40;35.50;;;;;;5039855;28;20154;-82
2022/11/05 11:56:49;;;;;;;68.63;3.70;;;13.40;44.60;;;;;;5038297;28;20798;-82
2022/11/05 11:59:26;;;;;;;66.73;3.60;;;13.40;38.50;;;;;;5039758;28;20447;-83
2022/11/05 12:02:12;;;;;;;67.23;3.20;;;13.40;35.10;;;;;;5038002;28;20161;-82
2022/11/05 12:04:57;;;;;;;66.10;3.55;;;13.20;29.90;;;;;;5037673;28;20875;-82
2022/11/05 12:07:43;;;;;;;69.03;3.40;;;13.10;35.20;;;;;;5037383;28;20185;-82
2022/11/05 12:10:11;;;;;;;68.05;4.10;;;13.10;36.30;;;;;;5037191;28;20212;-83
2022/11/05 12:12:51;;;;;;;67.05;3.72;;;13.10;37.40;;;;;;5037471;28;20502;-82
2022/11/05 12:15:38;;;;;;;72.30;5.20;;;13.00;37.30;;;;;;5037235;28;20509;-82
2022/11/05 12:18:08;;;;;;;66.95;4.55;;;13.00;40.20;;;;;;5052587;28;20169;-82
2022/11/05 12:20:52;;;;;;;67.65;4.80;;;13.00;43.50;;;;;;5052433;28;20231;-82
2022/11/05 12:23:50;;;;;;;68.57;4.20;;;13.00;50.00;;;;;;5054031;28;20644;-82
2022/11/05 12:26:34;;;;;;;65.70;3.97;;;12.90;47.10;;;;;;5011962;28;20189;-82
2022/11/05 12:29:25;;;;;;;64.80;3.85;;;13.00;42.30;;;;;;5039044;28;20197;-82
2022/11/05 12:32:00;;;;;;;67.13;3.70;;;12.90;41.40;;;;;;5031193;28;20227;-82
2022/11/05 12:34:31;;;;;;;66.68;4.05;;;12.90;38.80;;;;;;5037188;28;20172;-82
2022/11/05 12:37:26;;;;;;;68.03;4.40;;;13.00;43.60;;;;;;5038424;28;20161;-82
2022/11/05 12:39:58;;;;;;;66.65;4.15;;;13.00;43.00;;;;;;5038160;28;20216;-82
2022/11/05 12:42:34;;;;;;;66.60;4.50;;;12.90;50.30;;;;;;5037873;28;20181;-82
2022/11/05 12:45:20;;;;;;;66.97;4.65;;;12.90;47.30;;;;;;5037805;28;20180;-82
2022/11/05 12:48:05;;;;;;;66.38;4.05;;;13.00;45.80;;;;;;5037938;28;20208;-82
2022/11/05 12:50:43;;;;;;;65.75;4.53;;;12.80;46.00;;;;;;5038018;28;20271;-82
2022/11/05 12:53:27;;;;;;;65.68;4.75;;;12.80;56.60;;;;;;5037654;28;20568;-82
2022/11/05 12:55:56;;;;;;;66.20;4.45;;;12.70;60.00;;;;;;5038499;28;20153;-82
2022/11/05 12:58:37;;;;;;;68.55;4.53;;;12.70;59.90;;;;;;5037623;28;20184;-82
2022/11/05 13:01:09;;;;;;;66.35;4.50;;;12.40;59.50;;;;;;5037308;28;20617;-82
2022/11/05 13:03:57;;;;;;;69.15;4.72;;;12.40;71.30;;;;;;5037527;28;20157;-82
2022/11/05 13:06:39;;;;;;;81.35;5.28;;;12.50;64.00;;;;;;5038760;28;20149;-82
2022/11/05 13:09:18;;;;;;;77.10;4.40;;;12.50;67.60;;;;;;5037508;28;20273;-82
2022/11/05 13:12:07;;;;;;;70.32;4.90;;;12.60;61.30;;;;;;5037262;28;20491;-82
2022/11/05 13:14:42;;;;;;;67.35;4.80;;;12.50;62.60;;;;;;5052304;28;20165;-82
2022/11/05 13:17:17;;;;;;;67.18;5.20;;;12.40;60.40;;;;;;5036183;28;20150;-82
2022/11/05 13:20:06;;;;;;;68.97;6.20;;;12.50;60.00;;;;;;5037096;28;20264;-82
2022/11/05 13:22:36;;;;;;;70.55;5.18;;;12.50;55.90;;;;;;5037347;28;20157;-82
2022/11/05 13:25:25;;;;;;;71.60;5.30;;;12.60;59.10;;;;;;5037370;28;20158;-82
2022/11/05 13:27:57;;;;;;;66.35;5.05;;;12.50;52.90;;;;;;5036663;28;20212;-82
2022/11/05 13:30:36;;;;;;;71.95;4.75;;;12.50;52.10;;;;;;5035779;28;20186;-82
2022/11/05 13:33:10;;;;;;;71.28;5.25;;;12.40;46.00;;;;;;5052224;28;20169;-82
2022/11/05 13:39:00;;;;;;;68.95;7.28;;;12.30;44.80;;;;;;5036907;28;20222;-82
2022/11/05 13:42:04;;;;;;;68.47;6.35;;;12.50;48.90;;;;;;5036667;28;20175;-82
2022/11/05 13:44:35;;;;;;;67.88;4.70;;;12.60;47.20;;;;;;5036161;28;20185;-82
2022/11/05 13:47:07;;;;;;;70.28;4.15;;;12.70;41.40;;;;;;5036783;28;20157;-82
2022/11/05 13:49:54;;;;;;;71.47;4.45;;;12.70;33.80;;;;;;5036680;28;20193;-82
2022/11/05 13:52:50;;;;;;;67.80;4.97;;;12.80;36.60;;;;;;5035331;28;20169;-82